Time,TemperatureF,DewpointF,PressureIn,WindDirection,WindDirectionDegrees,WindSpeedMPH,WindSpeedGustMPH,Humidity,HourlyPrecipIn,Conditions,Clouds,dailyrainin,SoftwareType,DateUTC
2013-01-11 00:18:00,40.6,33.0,30.12,SE,126,5.0,-999.0,75,-99.99,,,0.01,weatherlink.com 1.10,2013-01-11 05:18:00,
2013-01-11 00:33:00,40.8,33.0,30.11,SE,126,0.0,-999.0,75,-99.99,,,0.01,weatherlink.com 1.10,2013-01-11 05:33:00,
2013-01-11 00:48:00,40.2,35.0,30.10,ESE,119,6.0,-999.0,82,-99.99,,,0.06,weatherlink.com 1.10,2013-01-11 05:48:00,
2013-01-11 01:03:00,39.0,36.0,30.08,ESE,103,4.0,-999.0,88,-99.99,,,0.10,weatherlink.com 1.10,2013-01-11 06:03:00,
2013-01-11 01:18:00,39.2,36.0,30.07,ESE,122,4.0,-999.0,89,-99.99,,,0.10,weatherlink.com 1.10,2013-01-11 06:18:00,
2013-01-11 01:33:00,39.1,36.0,30.06,ESE,123,4.0,-999.0,89,-99.99,,,0.10,weatherlink.com 1.10,2013-01-11 06:33:00,
2013-01-11 01:48:00,39.2,36.0,30.05,ESE,122,2.0,-999.0,89,-99.99,,,0.10,weatherlink.com 1.10,2013-01-11 06:48:00,
2013-01-11 02:03:00,39.5,37.0,30.05,ESE,122,4.0,-999.0,89,-99.99,,,0.10,weatherlink.com 1.10,2013-01-11 07:03:00,
2013-01-11 02:18:00,40.1,37.0,30.05,ESE,120,4.0,-999.0,87,-99.99,,,0.10,weatherlink.com 1.10,2013-01-11 07:18:00,
2013-01-11 02:34:00,40.6,37.0,30.03,ESE,119,4.0,-999.0,87,-99.99,,,0.10,weatherlink.com 1.10,2013-01-11 07:34:00,
2013-01-11 02:49:00,41.2,38.0,30.02,ESE,122,5.0,-999.0,87,-99.99,,,0.10,weatherlink.com 1.10,2013-01-11 07:49:00,
2013-01-11 03:04:00,41.6,38.0,30.01,ESE,109,6.0,-999.0,87,-99.99,,,0.10,weatherlink.com 1.10,2013-01-11 08:04:00,
2013-01-11 03:19:00,42.0,38.0,29.99,ESE,115,4.0,-999.0,87,-99.99,,,0.10,weatherlink.com 1.10,2013-01-11 08:19:00,
2013-01-11 03:34:00,42.7,39.0,29.99,ESE,123,2.0,-999.0,88,-99.99,,,0.10,weatherlink.com 1.10,2013-01-11 08:34:00,
2013-01-11 03:49:00,43.4,40.0,29.98,ESE,123,2.0,-999.0,88,-99.99,,,0.10,weatherlink.com 1.10,2013-01-11 08:49:00,
2013-01-11 04:04:00,43.9,42.0,29.97,ESE,123,5.0,-999.0,92,-99.99,,,0.10,weatherlink.com 1.10,2013-01-11 09:04:00,
2013-01-11 04:19:00,43.7,41.0,29.96,ESE,123,2.0,-999.0,89,-99.99,,,0.10,weatherlink.com 1.10,2013-01-11 09:19:00,
2013-01-11 04:35:00,47.8,45.0,29.95,SSE,161,8.0,-999.0,88,-99.99,,,0.10,weatherlink.com 1.10,2013-01-11 09:35:00,
2013-01-11 04:50:00,49.4,45.0,29.94,SSE,152,8.0,-999.0,84,-99.99,,,0.10,weatherlink.com 1.10,2013-01-11 09:50:00,
2013-01-11 05:05:00,49.9,45.0,29.93,SSE,148,9.0,-999.0,84,-99.99,,,0.10,weatherlink.com 1.10,2013-01-11 10:05:00,
2013-01-11 05:20:00,50.2,46.0,29.91,SSW,198,5.0,-999.0,85,-99.99,,,0.10,weatherlink.com 1.10,2013-01-11 10:20:00,
2013-01-11 05:35:00,50.7,46.0,29.90,SSE,164,12.0,-999.0,85,-99.99,,,0.10,weatherlink.com 1.10,2013-01-11 10:35:00,
2013-01-11 05:50:00,50.4,47.0,29.90,SSE,161,8.0,-999.0,88,-99.99,,,0.11,weatherlink.com 1.10,2013-01-11 10:50:00,
2013-01-11 06:05:00,50.1,47.0,29.91,South,171,7.0,-999.0,90,-99.99,,,0.15,weatherlink.com 1.10,2013-01-11 11:05:00,
2013-01-11 06:20:00,49.5,47.0,29.91,SSE,165,5.0,-999.0,91,-99.99,,,0.10,weatherlink.com 1.10,2013-01-11 11:20:00,
2013-01-11 06:35:00,49.4,48.0,29.91,SSE,164,4.0,-999.0,94,-99.99,,,0.30,weatherlink.com 1.10,2013-01-11 11:35:00,
2013-01-11 06:50:00,49.7,48.0,29.93,SSW,197,11.0,-999.0,95,-99.99,,,0.39,weatherlink.com 1.10,2013-01-11 11:50:00,
2013-01-11 07:06:00,49.8,49.0,29.93,South,189,4.0,-999.0,95,-99.99,,,0.45,weatherlink.com 1.10,2013-01-11 12:06:00,
2013-01-11 07:21:00,50.1,49.0,29.92,South,186,2.0,-999.0,95,-99.99,,,0.47,weatherlink.com 1.10,2013-01-11 12:21:00,
2013-01-11 07:36:00,49.9,49.0,29.91,SSE,159,4.0,-999.0,95,-99.99,,,0.48,weatherlink.com 1.10,2013-01-11 12:36:00,
2013-01-11 07:51:00,49.7,48.0,29.92,South,169,9.0,-999.0,95,-99.99,,,0.58,weatherlink.com 1.10,2013-01-11 12:51:00,
2013-01-11 08:06:00,49.9,49.0,29.91,SSE,162,7.0,-999.0,96,-99.99,,,0.62,weatherlink.com 1.10,2013-01-11 13:06:00,
2013-01-11 08:21:00,50.1,49.0,29.89,SE,144,5.0,-999.0,96,-99.99,,,0.64,weatherlink.com 1.10,2013-01-11 13:21:00,
2013-01-11 08:36:00,50.3,49.0,29.84,ESE,123,12.0,-999.0,96,-99.99,,,0.68,weatherlink.com 1.10,2013-01-11 13:36:00,
2013-01-11 08:51:00,50.0,49.0,29.82,SE,130,6.0,-999.0,96,-99.99,,,0.68,weatherlink.com 1.10,2013-01-11 13:51:00,
2013-01-11 09:06:00,49.8,49.0,29.81,SSE,147,10.0,-999.0,96,-99.99,,,0.68,weatherlink.com 1.10,2013-01-11 14:06:00,
2013-01-11 09:21:00,50.5,49.0,29.81,SE,142,7.0,-999.0,96,-99.99,,,0.68,weatherlink.com 1.10,2013-01-11 14:21:00,
2013-01-11 09:36:00,51.3,50.0,29.82,South,174,5.0,-999.0,96,-99.99,,,0.68,weatherlink.com 1.10,2013-01-11 14:36:00,
2013-01-11 09:52:00,52.8,51.0,29.82,South,182,14.0,-999.0,94,-99.99,,,0.69,weatherlink.com 1.10,2013-01-11 14:52:00,
2013-01-11 10:07:00,53.3,51.0,29.82,South,176,7.0,-999.0,93,-99.99,,,0.69,weatherlink.com 1.10,2013-01-11 15:07:00,
2013-01-11 10:22:00,53.5,52.0,29.83,SSE,167,9.0,-999.0,93,-99.99,,,0.69,weatherlink.com 1.10,2013-01-11 15:22:00,
2013-01-11 10:37:00,53.6,52.0,29.84,South,187,6.0,-999.0,93,-99.99,,,0.69,weatherlink.com 1.10,2013-01-11 15:37:00,
2013-01-11 10:52:00,53.9,52.0,29.84,SW,214,10.0,-999.0,93,-99.99,,,0.69,weatherlink.com 1.10,2013-01-11 15:52:00,
2013-01-11 11:07:00,54.4,53.0,29.84,SW,219,10.0,-999.0,93,-99.99,,,0.69,weatherlink.com 1.10,2013-01-11 16:07:00,
2013-01-11 11:22:00,54.7,53.0,29.85,SSW,209,9.0,-999.0,92,-99.99,,,0.69,weatherlink.com 1.10,2013-01-11 16:22:00,
2013-01-11 11:37:00,54.4,52.0,29.84,South,184,11.0,-999.0,92,-99.99,,,0.69,weatherlink.com 1.10,2013-01-11 16:37:00,
2013-01-11 11:52:00,55.1,53.0,29.84,SW,223,8.0,-999.0,92,-99.99,,,0.69,weatherlink.com 1.10,2013-01-11 16:52:00,
2013-01-11 12:07:00,55.1,53.0,29.84,SSW,211,9.0,-999.0,92,-99.99,,,0.69,weatherlink.com 1.10,2013-01-11 17:07:00,
2013-01-11 12:22:00,56.3,54.0,29.83,SSW,203,17.0,-999.0,91,-99.99,,,0.69,weatherlink.com 1.10,2013-01-11 17:22:00,
2013-01-11 12:38:00,56.9,54.0,29.83,WSW,242,12.0,-999.0,89,-99.99,,,0.69,weatherlink.com 1.10,2013-01-11 17:38:00,
2013-01-11 12:53:00,57.5,54.0,29.83,SW,217,10.0,-999.0,88,-99.99,,,0.69,weatherlink.com 1.10,2013-01-11 17:53:00,
2013-01-11 13:08:00,57.7,54.0,29.82,SW,233,6.0,-999.0,86,-99.99,,,0.69,weatherlink.com 1.10,2013-01-11 18:08:00,
2013-01-11 13:23:00,58.0,54.0,29.83,SW,229,11.0,-999.0,86,-99.99,,,0.69,weatherlink.com 1.10,2013-01-11 18:23:00,
2013-01-11 13:38:00,57.6,54.0,29.83,WSW,252,7.0,-999.0,86,-99.99,,,0.69,weatherlink.com 1.10,2013-01-11 18:38:00,
2013-01-11 13:53:00,58.0,54.0,29.83,SSW,209,9.0,-999.0,86,-99.99,,,0.69,weatherlink.com 1.10,2013-01-11 18:53:00,
2013-01-11 14:08:00,58.8,54.0,29.83,SW,230,7.0,-999.0,83,-99.99,,,0.69,weatherlink.com 1.10,2013-01-11 19:08:00,
2013-01-11 14:23:00,59.0,53.0,29.83,SW,227,12.0,-999.0,80,-99.99,,,0.69,weatherlink.com 1.10,2013-01-11 19:23:00,
2013-01-11 14:38:00,59.3,53.0,29.83,WSW,239,13.0,-999.0,80,-99.99,,,0.69,weatherlink.com 1.10,2013-01-11 19:38:00,
2013-01-11 14:53:00,58.8,52.0,29.84,SW,236,12.0,-999.0,79,-99.99,,,0.69,weatherlink.com 1.10,2013-01-11 19:53:00,
2013-01-11 15:08:00,58.2,52.0,29.85,WSW,244,10.0,-999.0,80,-99.99,,,0.69,weatherlink.com 1.10,2013-01-11 20:08:00,
2013-01-11 15:24:00,58.3,52.0,29.85,SW,233,10.0,-999.0,80,-99.99,,,0.69,weatherlink.com 1.10,2013-01-11 20:24:00,
2013-01-11 15:39:00,58.0,52.0,29.85,WSW,242,4.0,-999.0,81,-99.99,,,0.69,weatherlink.com 1.10,2013-01-11 20:39:00,
2013-01-11 15:54:00,57.6,52.0,29.86,WSW,242,7.0,-999.0,81,-99.99,,,0.69,weatherlink.com 1.10,2013-01-11 20:54:00,
2013-01-11 16:09:00,57.5,51.0,29.86,SSW,212,10.0,-999.0,80,-99.99,,,0.69,weatherlink.com 1.10,2013-01-11 21:09:00,
2013-01-11 16:24:00,57.6,52.0,29.86,WSW,240,14.0,-999.0,80,-99.99,,,0.69,weatherlink.com 1.10,2013-01-11 21:24:00,
2013-01-11 16:39:00,56.5,50.0,29.87,West,266,10.0,-999.0,79,-99.99,,,0.69,weatherlink.com 1.10,2013-01-11 21:39:00,
2013-01-11 16:54:00,55.5,50.0,29.88,SW,234,3.0,-999.0,81,-99.99,,,0.69,weatherlink.com 1.10,2013-01-11 21:54:00,
2013-01-11 17:09:00,54.8,49.0,29.87,SW,229,7.0,-999.0,82,-99.99,,,0.69,weatherlink.com 1.10,2013-01-11 22:09:00,
2013-01-11 17:28:00,54.0,49.0,29.88,SW,220,3.0,-999.0,84,-99.99,,,0.69,weatherlink.com 1.10,2013-01-11 22:28:00,
2013-01-11 17:39:00,53.4,49.0,29.88,SW,220,2.0,-999.0,85,-99.99,,,0.69,weatherlink.com 1.10,2013-01-11 22:39:00,
2013-01-11 17:54:00,52.6,49.0,29.88,SW,220,1.0,-999.0,87,-99.99,,,0.69,weatherlink.com 1.10,2013-01-11 22:54:00,
2013-01-11 18:09:00,52.1,49.0,29.89,SW,219,1.0,-999.0,89,-99.99,,,0.69,weatherlink.com 1.10,2013-01-11 23:09:00,
2013-01-11 18:24:00,51.7,49.0,29.88,SW,219,4.0,-999.0,90,-99.99,,,0.69,weatherlink.com 1.10,2013-01-11 23:24:00,
2013-01-11 18:40:00,51.5,49.0,29.90,SW,219,3.0,-999.0,91,-99.99,,,0.69,weatherlink.com 1.10,2013-01-11 23:40:00,
2013-01-11 18:55:00,51.4,49.0,29.90,SW,218,4.0,-999.0,90,-99.99,,,0.69,weatherlink.com 1.10,2013-01-11 23:55:00,
2013-01-11 19:10:00,51.0,48.0,29.90,SSW,200,2.0,-999.0,89,-99.99,,,0.69,weatherlink.com 1.10,2013-01-12 00:10:00,
2013-01-11 19:25:00,50.8,48.0,29.89,SSW,193,3.0,-999.0,89,-99.99,,,0.69,weatherlink.com 1.10,2013-01-12 00:25:00,
2013-01-11 19:40:00,51.0,48.0,29.89,South,180,3.0,-999.0,89,-99.99,,,0.69,weatherlink.com 1.10,2013-01-12 00:40:00,
2013-01-11 19:55:00,51.1,48.0,29.89,South,178,4.0,-999.0,88,-99.99,,,0.69,weatherlink.com 1.10,2013-01-12 00:55:00,
2013-01-11 20:10:00,50.8,48.0,29.89,South,177,5.0,-999.0,89,-99.99,,,0.69,weatherlink.com 1.10,2013-01-12 01:10:00,
2013-01-11 20:25:00,50.8,48.0,29.89,South,171,6.0,-999.0,90,-99.99,,,0.69,weatherlink.com 1.10,2013-01-12 01:25:00,
2013-01-11 20:40:00,50.5,48.0,29.89,South,171,5.0,-999.0,90,-99.99,,,0.69,weatherlink.com 1.10,2013-01-12 01:40:00,
2013-01-11 20:55:00,50.5,48.0,29.89,South,171,6.0,-999.0,90,-99.99,,,0.69,weatherlink.com 1.10,2013-01-12 01:55:00,
2013-01-11 21:10:00,50.3,48.0,29.89,South,171,4.0,-999.0,90,-99.99,,,0.69,weatherlink.com 1.10,2013-01-12 02:10:00,
2013-01-11 21:25:00,50.1,47.0,29.87,South,170,6.0,-999.0,90,-99.99,,,0.69,weatherlink.com 1.10,2013-01-12 02:25:00,
2013-01-11 21:40:00,50.4,48.0,29.88,SSE,164,5.0,-999.0,90,-99.99,,,0.69,weatherlink.com 1.10,2013-01-12 02:40:00,
2013-01-11 21:55:00,50.6,48.0,29.88,SSE,165,4.0,-999.0,90,-99.99,,,0.69,weatherlink.com 1.10,2013-01-12 02:55:00,
2013-01-11 22:11:00,50.9,48.0,29.88,SSE,167,6.0,-999.0,89,-99.99,,,0.69,weatherlink.com 1.10,2013-01-12 03:11:00,
2013-01-11 22:26:00,51.3,48.0,29.88,SSE,165,5.0,-999.0,88,-99.99,,,0.69,weatherlink.com 1.10,2013-01-12 03:26:00,
2013-01-11 22:41:00,51.7,48.0,29.87,South,172,6.0,-999.0,87,-99.99,,,0.69,weatherlink.com 1.10,2013-01-12 03:41:00,
2013-01-11 22:56:00,51.8,48.0,29.86,South,185,5.0,-999.0,87,-99.99,,,0.69,weatherlink.com 1.10,2013-01-12 03:56:00,
2013-01-11 23:11:00,51.7,48.0,29.87,South,188,6.0,-999.0,87,-99.99,,,0.69,weatherlink.com 1.10,2013-01-12 04:11:00,
2013-01-11 23:26:00,51.8,48.0,29.88,South,181,4.0,-999.0,87,-99.99,,,0.69,weatherlink.com 1.10,2013-01-12 04:26:00,
2013-01-11 23:41:00,51.9,48.0,29.87,South,169,8.0,-999.0,87,-99.99,,,0.69,weatherlink.com 1.10,2013-01-12 04:41:00,
2013-01-11 23:56:00,51.9,48.0,29.87,SSE,168,4.0,-999.0,87,-99.99,,,0.69,weatherlink.com 1.10,2013-01-12 04:56:00,